sensor_id;sensor_type;location;lat;lon;timestamp;P1;durP1;ratioP1;P2;durP2;ratioP2
1346;SDS011;667;48.796;9.480;2023-03-24T00:02:05;4.30;;;3.07;;
1346;SDS011;667;48.796;9.480;2023-03-24T00:04:31;5.15;;;3.30;;
1346;SDS011;667;48.796;9.480;2023-03-24T00:06:58;3.17;;;2.70;;
1346;SDS011;667;48.796;9.480;2023-03-24T00:09:26;4.90;;;2.78;;
1346;SDS011;667;48.796;9.480;2023-03-24T00:11:57;3.28;;;2.33;;
1346;SDS011;667;48.796;9.480;2023-03-24T00:14:23;3.55;;;2.92;;
1346;SDS011;667;48.796;9.480;2023-03-24T00:16:49;3.75;;;2.75;;
1346;SDS011;667;48.796;9.480;2023-03-24T00:19:17;5.03;;;2.78;;
1346;SDS011;667;48.796;9.480;2023-03-24T00:21:44;3.50;;;2.78;;
1346;SDS011;667;48.796;9.480;2023-03-24T00:24:10;3.17;;;2.40;;
1346;SDS011;667;48.796;9.480;2023-03-24T00:26:37;4.25;;;3.38;;
1346;SDS011;667;48.796;9.480;2023-03-24T00:29:05;3.00;;;2.70;;
1346;SDS011;667;48.796;9.480;2023-03-24T00:31:32;4.10;;;2.47;;
1346;SDS011;667;48.796;9.480;2023-03-24T00:33:58;3.50;;;2.93;;
1346;SDS011;667;48.796;9.480;2023-03-24T00:36:26;4.95;;;2.92;;
1346;SDS011;667;48.796;9.480;2023-03-24T00:38:54;4.25;;;2.80;;
1346;SDS011;667;48.796;9.480;2023-03-24T00:41:20;3.45;;;2.80;;
1346;SDS011;667;48.796;9.480;2023-03-24T00:43:49;3.25;;;2.97;;
1346;SDS011;667;48.796;9.480;2023-03-24T00:46:15;5.97;;;3.30;;
1346;SDS011;667;48.796;9.480;2023-03-24T00:49:03;4.25;;;3.00;;
1346;SDS011;667;48.796;9.480;2023-03-24T00:51:35;3.65;;;3.10;;
1346;SDS011;667;48.796;9.480;2023-03-24T00:54:03;4.35;;;2.75;;
1346;SDS011;667;48.796;9.480;2023-03-24T00:56:30;4.30;;;2.60;;
1346;SDS011;667;48.796;9.480;2023-03-24T00:58:57;3.10;;;2.90;;
1346;SDS011;667;48.796;9.480;2023-03-24T01:01:26;3.20;;;2.90;;
1346;SDS011;667;48.796;9.480;2023-03-24T01:03:53;4.15;;;3.55;;
1346;SDS011;667;48.796;9.480;2023-03-24T01:06:21;4.90;;;3.05;;
1346;SDS011;667;48.796;9.480;2023-03-24T01:08:48;2.90;;;2.67;;
1346;SDS011;667;48.796;9.480;2023-03-24T01:11:17;3.92;;;3.53;;
1346;SDS011;667;48.796;9.480;2023-03-24T01:13:48;4.15;;;3.85;;
1346;SDS011;667;48.796;9.480;2023-03-24T01:16:14;3.10;;;2.65;;
1346;SDS011;667;48.796;9.480;2023-03-24T01:18:40;3.40;;;2.80;;
1346;SDS011;667;48.796;9.480;2023-03-24T01:21:06;3.50;;;3.20;;
1346;SDS011;667;48.796;9.480;2023-03-24T01:23:33;3.92;;;2.95;;
1346;SDS011;667;48.796;9.480;2023-03-24T01:26:02;2.85;;;2.65;;
1346;SDS011;667;48.796;9.480;2023-03-24T01:28:30;3.60;;;2.92;;
1346;SDS011;667;48.796;9.480;2023-03-24T01:30:56;7.53;;;2.97;;
1346;SDS011;667;48.796;9.480;2023-03-24T01:33:21;2.67;;;2.47;;
1346;SDS011;667;48.796;9.480;2023-03-24T01:35:47;3.57;;;2.43;;
1346;SDS011;667;48.796;9.480;2023-03-24T01:38:13;3.60;;;2.90;;
1346;SDS011;667;48.796;9.480;2023-03-24T01:40:42;3.70;;;2.78;;
1346;SDS011;667;48.796;9.480;2023-03-24T01:43:16;3.55;;;2.40;;
1346;SDS011;667;48.796;9.480;2023-03-24T01:56:39;4.22;;;2.95;;
1346;SDS011;667;48.796;9.480;2023-03-24T01:59:12;4.47;;;3.08;;
1346;SDS011;667;48.796;9.480;2023-03-24T02:01:42;2.80;;;2.60;;
1346;SDS011;667;48.796;9.480;2023-03-24T02:04:09;3.08;;;2.60;;
1346;SDS011;667;48.796;9.480;2023-03-24T02:06:36;4.72;;;2.85;;
1346;SDS011;667;48.796;9.480;2023-03-24T02:09:05;2.38;;;2.03;;
1346;SDS011;667;48.796;9.480;2023-03-24T02:11:33;2.50;;;2.30;;
1346;SDS011;667;48.796;9.480;2023-03-24T02:14:00;3.67;;;2.92;;
1346;SDS011;667;48.796;9.480;2023-03-24T02:35:42;3.78;;;2.25;;
1346;SDS011;667;48.796;9.480;2023-03-24T02:38:33;3.60;;;2.83;;
1346;SDS011;667;48.796;9.480;2023-03-24T02:46:35;3.30;;;2.90;;
1346;SDS011;667;48.796;9.480;2023-03-24T02:54:47;3.25;;;2.40;;
1346;SDS011;667;48.796;9.480;2023-03-24T03:00:18;3.63;;;2.30;;
1346;SDS011;667;48.796;9.480;2023-03-24T03:03:06;2.42;;;2.22;;
1346;SDS011;667;48.796;9.480;2023-03-24T03:05:40;4.53;;;2.70;;
1346;SDS011;667;48.796;9.480;2023-03-24T03:08:09;2.80;;;2.50;;
1346;SDS011;667;48.796;9.480;2023-03-24T03:10:39;3.85;;;2.35;;
1346;SDS011;667;48.796;9.480;2023-03-24T03:13:13;2.53;;;2.33;;
1346;SDS011;667;48.796;9.480;2023-03-24T03:15:45;5.13;;;2.60;;
1346;SDS011;667;48.796;9.480;2023-03-24T03:18:21;2.92;;;2.63;;
1346;SDS011;667;48.796;9.480;2023-03-24T03:20:50;3.80;;;2.20;;
1346;SDS011;667;48.796;9.480;2023-03-24T03:23:26;6.13;;;2.95;;
1346;SDS011;667;48.796;9.480;2023-03-24T03:25:57;2.47;;;2.28;;
1346;SDS011;667;48.796;9.480;2023-03-24T03:28:31;3.33;;;2.70;;
1346;SDS011;667;48.796;9.480;2023-03-24T03:30:59;4.90;;;3.65;;
1346;SDS011;667;48.796;9.480;2023-03-24T03:33:30;2.72;;;2.35;;
1346;SDS011;667;48.796;9.480;2023-03-24T03:38:46;2.83;;;2.38;;
1346;SDS011;667;48.796;9.480;2023-03-24T03:41:19;2.80;;;2.55;;
1346;SDS011;667;48.796;9.480;2023-03-24T03:43:45;2.75;;;2.22;;
1346;SDS011;667;48.796;9.480;2023-03-24T03:46:13;3.45;;;2.50;;
1346;SDS011;667;48.796;9.480;2023-03-24T03:48:40;3.28;;;2.45;;
1346;SDS011;667;48.796;9.480;2023-03-24T03:51:07;2.72;;;2.45;;
1346;SDS011;667;48.796;9.480;2023-03-24T03:53:42;3.30;;;2.65;;
1346;SDS011;667;48.796;9.480;2023-03-24T03:56:09;3.67;;;2.60;;
1346;SDS011;667;48.796;9.480;2023-03-24T03:58:35;3.20;;;2.40;;
1346;SDS011;667;48.796;9.480;2023-03-24T04:01:01;2.73;;;2.53;;
1346;SDS011;667;48.796;9.480;2023-03-24T04:06:01;4.35;;;2.80;;
1346;SDS011;667;48.796;9.480;2023-03-24T04:08:50;3.17;;;2.15;;
1346;SDS011;667;48.796;9.480;2023-03-24T04:28:18;3.60;;;2.50;;
1346;SDS011;667;48.796;9.480;2023-03-24T04:30:54;3.35;;;2.53;;
1346;SDS011;667;48.796;9.480;2023-03-24T04:33:38;3.00;;;2.70;;
1346;SDS011;667;48.796;9.480;2023-03-24T04:36:26;2.60;;;2.40;;
1346;SDS011;667;48.796;9.480;2023-03-24T04:38:55;3.53;;;2.75;;
1346;SDS011;667;48.796;9.480;2023-03-24T04:41:23;2.90;;;2.50;;
1346;SDS011;667;48.796;9.480;2023-03-24T04:43:51;2.75;;;2.50;;
1346;SDS011;667;48.796;9.480;2023-03-24T04:46:19;2.63;;;2.20;;
1346;SDS011;667;48.796;9.480;2023-03-24T04:48:45;2.90;;;2.45;;
1346;SDS011;667;48.796;9.480;2023-03-24T04:51:15;2.50;;;2.30;;
1346;SDS011;667;48.796;9.480;2023-03-24T04:53:42;3.20;;;2.00;;
1346;SDS011;667;48.796;9.480;2023-03-24T04:56:16;6.00;;;2.35;;
1346;SDS011;667;48.796;9.480;2023-03-24T04:58:49;4.85;;;2.78;;
1346;SDS011;667;48.796;9.480;2023-03-24T05:01:14;2.30;;;2.10;;
1346;SDS011;667;48.796;9.480;2023-03-24T05:03:41;2.80;;;2.60;;
1346;SDS011;667;48.796;9.480;2023-03-24T05:06:09;2.58;;;2.10;;
1346;SDS011;667;48.796;9.480;2023-03-24T05:08:36;2.88;;;2.00;;
1346;SDS011;667;48.796;9.480;2023-03-24T05:11:02;4.00;;;2.30;;
1346;SDS011;667;48.796;9.480;2023-03-24T05:13:28;2.13;;;1.97;;
1346;SDS011;667;48.796;9.480;2023-03-24T05:15:53;2.33;;;2.13;;
1346;SDS011;667;48.796;9.480;2023-03-24T05:18:19;2.43;;;2.23;;
1346;SDS011;667;48.796;9.480;2023-03-24T05:20:45;2.20;;;2.00;;
1346;SDS011;667;48.796;9.480;2023-03-24T05:23:10;2.77;;;2.10;;
1346;SDS011;667;48.796;9.480;2023-03-24T05:25:36;2.50;;;2.00;;
1346;SDS011;667;48.796;9.480;2023-03-24T05:28:01;1.63;;;1.53;;
1346;SDS011;667;48.796;9.480;2023-03-24T05:30:27;2.33;;;1.97;;
1346;SDS011;667;48.796;9.480;2023-03-24T05:32:53;2.07;;;1.97;;
1346;SDS011;667;48.796;9.480;2023-03-24T05:35:18;2.63;;;1.70;;
1346;SDS011;667;48.796;9.480;2023-03-24T05:37:44;4.33;;;1.93;;
1346;SDS011;667;48.796;9.480;2023-03-24T05:40:10;2.27;;;2.07;;
1346;SDS011;667;48.796;9.480;2023-03-24T05:42:35;2.30;;;2.10;;
1346;SDS011;667;48.796;9.480;2023-03-24T05:45:01;2.73;;;1.87;;
1346;SDS011;667;48.796;9.480;2023-03-24T05:47:27;2.33;;;2.00;;
1346;SDS011;667;48.796;9.480;2023-03-24T05:49:53;2.27;;;2.07;;
1346;SDS011;667;48.796;9.480;2023-03-24T05:52:18;2.23;;;2.03;;
1346;SDS011;667;48.796;9.480;2023-03-24T05:54:46;2.37;;;2.17;;
1346;SDS011;667;48.796;9.480;2023-03-24T05:57:15;2.87;;;2.43;;
1346;SDS011;667;48.796;9.480;2023-03-24T05:59:42;2.70;;;2.50;;
1346;SDS011;667;48.796;9.480;2023-03-24T06:02:07;4.80;;;2.50;;
1346;SDS011;667;48.796;9.480;2023-03-24T06:04:33;2.60;;;2.40;;
1346;SDS011;667;48.796;9.480;2023-03-24T06:06:59;2.40;;;2.20;;
1346;SDS011;667;48.796;9.480;2023-03-24T06:09:25;2.37;;;2.20;;
1346;SDS011;667;48.796;9.480;2023-03-24T06:11:59;4.10;;;2.40;;
1346;SDS011;667;48.796;9.480;2023-03-24T06:14:25;2.70;;;2.50;;
1346;SDS011;667;48.796;9.480;2023-03-24T06:16:51;3.20;;;2.30;;
1346;SDS011;667;48.796;9.480;2023-03-24T06:19:17;2.60;;;2.40;;
1346;SDS011;667;48.796;9.480;2023-03-24T06:21:46;2.60;;;2.40;;
1346;SDS011;667;48.796;9.480;2023-03-24T06:24:14;2.80;;;2.50;;
1346;SDS011;667;48.796;9.480;2023-03-24T06:26:42;3.23;;;2.83;;
1346;SDS011;667;48.796;9.480;2023-03-24T06:29:08;2.50;;;2.30;;
1346;SDS011;667;48.796;9.480;2023-03-24T06:31:35;3.13;;;2.50;;
1346;SDS011;667;48.796;9.480;2023-03-24T06:34:01;3.07;;;2.77;;
1346;SDS011;667;48.796;9.480;2023-03-24T06:36:30;2.80;;;2.60;;
1346;SDS011;667;48.796;9.480;2023-03-24T06:38:58;4.03;;;2.90;;
1346;SDS011;667;48.796;9.480;2023-03-24T06:41:24;5.97;;;3.40;;
1346;SDS011;667;48.796;9.480;2023-03-24T06:43:50;3.27;;;2.97;;
1346;SDS011;667;48.796;9.480;2023-03-24T06:46:16;3.23;;;2.90;;
1346;SDS011;667;48.796;9.480;2023-03-24T06:48:41;3.50;;;3.20;;
1346;SDS011;667;48.796;9.480;2023-03-24T06:51:07;4.10;;;3.80;;
1346;SDS011;667;48.796;9.480;2023-03-24T06:53:32;3.70;;;3.10;;
1346;SDS011;667;48.796;9.480;2023-03-24T06:55:58;3.47;;;3.17;;
1346;SDS011;667;48.796;9.480;2023-03-24T06:58:23;3.00;;;2.60;;
1346;SDS011;667;48.796;9.480;2023-03-24T07:00:49;3.43;;;2.80;;
1346;SDS011;667;48.796;9.480;2023-03-24T07:03:15;3.60;;;3.30;;
1346;SDS011;667;48.796;9.480;2023-03-24T07:05:42;3.92;;;2.92;;
1346;SDS011;667;48.796;9.480;2023-03-24T07:08:10;3.28;;;2.97;;
1346;SDS011;667;48.796;9.480;2023-03-24T07:10:38;4.22;;;3.22;;
1346;SDS011;667;48.796;9.480;2023-03-24T07:13:05;3.95;;;3.50;;
1346;SDS011;667;48.796;9.480;2023-03-24T07:15:31;3.72;;;3.35;;
1346;SDS011;667;48.796;9.480;2023-03-24T07:17:57;3.70;;;3.40;;
1346;SDS011;667;48.796;9.480;2023-03-24T07:20:23;3.70;;;3.40;;
1346;SDS011;667;48.796;9.480;2023-03-24T07:22:48;3.73;;;3.40;;
1346;SDS011;667;48.796;9.480;2023-03-24T07:25:14;3.00;;;2.80;;
1346;SDS011;667;48.796;9.480;2023-03-24T07:27:43;4.53;;;3.57;;
1346;SDS011;667;48.796;9.480;2023-03-24T07:30:10;4.27;;;3.20;;
1346;SDS011;667;48.796;9.480;2023-03-24T07:32:36;2.97;;;2.77;;
1346;SDS011;667;48.796;9.480;2023-03-24T07:35:07;3.08;;;2.88;;
1346;SDS011;667;48.796;9.480;2023-03-24T07:37:37;3.55;;;3.25;;
1346;SDS011;667;48.796;9.480;2023-03-24T07:40:04;3.65;;;3.33;;
1346;SDS011;667;48.796;9.480;2023-03-24T07:42:33;3.33;;;3.03;;
1346;SDS011;667;48.796;9.480;2023-03-24T07:44:59;3.33;;;3.13;;
1346;SDS011;667;48.796;9.480;2023-03-24T07:47:25;3.00;;;2.70;;
1346;SDS011;667;48.796;9.480;2023-03-24T07:49:50;3.40;;;3.10;;
1346;SDS011;667;48.796;9.480;2023-03-24T07:52:16;4.07;;;3.57;;
1346;SDS011;667;48.796;9.480;2023-03-24T07:54:41;4.57;;;2.97;;
1346;SDS011;667;48.796;9.480;2023-03-24T07:57:07;3.83;;;3.43;;
1346;SDS011;667;48.796;9.480;2023-03-24T07:59:32;4.93;;;3.10;;
1346;SDS011;667;48.796;9.480;2023-03-24T08:01:58;4.13;;;3.43;;
1346;SDS011;667;48.796;9.480;2023-03-24T08:04:24;3.47;;;2.77;;
1346;SDS011;667;48.796;9.480;2023-03-24T08:06:51;4.68;;;3.33;;
1346;SDS011;667;48.796;9.480;2023-03-24T08:09:17;7.93;;;3.87;;
1346;SDS011;667;48.796;9.480;2023-03-24T08:11:43;4.23;;;3.50;;
1346;SDS011;667;48.796;9.480;2023-03-24T08:14:09;4.30;;;3.70;;
1346;SDS011;667;48.796;9.480;2023-03-24T08:16:35;4.40;;;3.40;;
1346;SDS011;667;48.796;9.480;2023-03-24T08:19:02;3.80;;;3.22;;
1346;SDS011;667;48.796;9.480;2023-03-24T08:21:28;3.00;;;2.80;;
1346;SDS011;667;48.796;9.480;2023-03-24T08:23:54;4.33;;;3.50;;
1346;SDS011;667;48.796;9.480;2023-03-24T08:26:20;3.70;;;3.40;;
1346;SDS011;667;48.796;9.480;2023-03-24T08:28:46;3.73;;;3.20;;
1346;SDS011;667;48.796;9.480;2023-03-24T08:31:13;8.00;;;3.75;;
1346;SDS011;667;48.796;9.480;2023-03-24T08:33:39;3.83;;;3.40;;
1346;SDS011;667;48.796;9.480;2023-03-24T08:36:05;3.50;;;3.20;;
1346;SDS011;667;48.796;9.480;2023-03-24T08:38:31;3.97;;;3.57;;
1346;SDS011;667;48.796;9.480;2023-03-24T08:41:00;4.23;;;3.47;;
1346;SDS011;667;48.796;9.480;2023-03-24T08:43:30;6.22;;;3.40;;
1346;SDS011;667;48.796;9.480;2023-03-24T08:45:58;4.00;;;3.60;;
1346;SDS011;667;48.796;9.480;2023-03-24T08:48:25;3.23;;;3.00;;
1346;SDS011;667;48.796;9.480;2023-03-24T08:50:52;3.53;;;3.23;;
1346;SDS011;667;48.796;9.480;2023-03-24T08:53:18;4.55;;;3.55;;
1346;SDS011;667;48.796;9.480;2023-03-24T08:55:44;4.20;;;3.83;;
1346;SDS011;667;48.796;9.480;2023-03-24T08:58:11;4.43;;;3.50;;
1346;SDS011;667;48.796;9.480;2023-03-24T09:00:39;6.10;;;4.47;;
1346;SDS011;667;48.796;9.480;2023-03-24T09:03:05;4.80;;;4.30;;
1346;SDS011;667;48.796;9.480;2023-03-24T09:05:30;4.47;;;3.57;;
1346;SDS011;667;48.796;9.480;2023-03-24T09:07:56;3.40;;;3.10;;
1346;SDS011;667;48.796;9.480;2023-03-24T09:10:24;4.50;;;4.10;;
1346;SDS011;667;48.796;9.480;2023-03-24T09:12:51;4.45;;;3.90;;
1346;SDS011;667;48.796;9.480;2023-03-24T09:15:16;4.50;;;4.10;;
1346;SDS011;667;48.796;9.480;2023-03-24T09:17:42;4.53;;;3.67;;
1346;SDS011;667;48.796;9.480;2023-03-24T09:20:10;3.73;;;3.40;;
1346;SDS011;667;48.796;9.480;2023-03-24T09:22:38;4.15;;;3.83;;
1346;SDS011;667;48.796;9.480;2023-03-24T09:25:05;4.80;;;4.22;;
1346;SDS011;667;48.796;9.480;2023-03-24T09:27:31;3.93;;;3.60;;
1346;SDS011;667;48.796;9.480;2023-03-24T09:29:56;5.63;;;3.60;;
1346;SDS011;667;48.796;9.480;2023-03-24T09:32:22;5.07;;;3.83;;
1346;SDS011;667;48.796;9.480;2023-03-24T09:34:47;4.50;;;4.10;;
1346;SDS011;667;48.796;9.480;2023-03-24T09:37:13;3.80;;;3.50;;
1346;SDS011;667;48.796;9.480;2023-03-24T09:39:38;3.60;;;3.30;;
1346;SDS011;667;48.796;9.480;2023-03-24T09:42:04;3.17;;;2.97;;
1346;SDS011;667;48.796;9.480;2023-03-24T09:44:33;4.10;;;3.80;;
1346;SDS011;667;48.796;9.480;2023-03-24T09:47:05;4.43;;;3.77;;
1346;SDS011;667;48.796;9.480;2023-03-24T09:49:57;4.10;;;3.70;;
1346;SDS011;667;48.796;9.480;2023-03-24T09:52:28;4.47;;;3.30;;
1346;SDS011;667;48.796;9.480;2023-03-24T09:55:00;3.40;;;3.10;;
1346;SDS011;667;48.796;9.480;2023-03-24T09:57:34;3.30;;;3.00;;
1346;SDS011;667;48.796;9.480;2023-03-24T10:02:44;6.30;;;3.30;;
1346;SDS011;667;48.796;9.480;2023-03-24T10:05:13;3.43;;;2.90;;
1346;SDS011;667;48.796;9.480;2023-03-24T10:10:22;4.73;;;2.57;;
1346;SDS011;667;48.796;9.480;2023-03-24T10:13:07;2.80;;;2.60;;
1346;SDS011;667;48.796;9.480;2023-03-24T10:15:51;3.37;;;3.07;;
1346;SDS011;667;48.796;9.480;2023-03-24T10:18:45;2.70;;;2.50;;
1346;SDS011;667;48.796;9.480;2023-03-24T10:21:19;3.83;;;3.00;;
1346;SDS011;667;48.796;9.480;2023-03-24T10:31:49;2.50;;;2.30;;
1346;SDS011;667;48.796;9.480;2023-03-24T10:34:18;2.27;;;2.07;;
1346;SDS011;667;48.796;9.480;2023-03-24T10:36:46;2.47;;;2.27;;
1346;SDS011;667;48.796;9.480;2023-03-24T10:39:15;2.27;;;2.10;;
1346;SDS011;667;48.796;9.480;2023-03-24T10:41:40;2.60;;;2.40;;
1346;SDS011;667;48.796;9.480;2023-03-24T10:44:07;2.03;;;1.90;;
1346;SDS011;667;48.796;9.480;2023-03-24T10:46:36;1.87;;;1.70;;
1346;SDS011;667;48.796;9.480;2023-03-24T10:49:12;1.83;;;1.70;;
1346;SDS011;667;48.796;9.480;2023-03-24T10:51:42;2.50;;;2.30;;
1346;SDS011;667;48.796;9.480;2023-03-24T10:56:48;2.37;;;2.00;;
1346;SDS011;667;48.796;9.480;2023-03-24T10:59:21;2.00;;;1.90;;
1346;SDS011;667;48.796;9.480;2023-03-24T11:02:39;1.60;;;1.50;;
1346;SDS011;667;48.796;9.480;2023-03-24T11:07:43;2.00;;;1.70;;
1346;SDS011;667;48.796;9.480;2023-03-24T11:17:45;1.43;;;1.33;;
1346;SDS011;667;48.796;9.480;2023-03-24T11:20:29;1.50;;;1.40;;
1346;SDS011;667;48.796;9.480;2023-03-24T11:23:05;3.03;;;1.40;;
1346;SDS011;667;48.796;9.480;2023-03-24T11:28:49;1.50;;;1.40;;
1346;SDS011;667;48.796;9.480;2023-03-24T11:31:27;1.73;;;1.30;;
1346;SDS011;667;48.796;9.480;2023-03-24T11:33:58;1.43;;;1.30;;
1346;SDS011;667;48.796;9.480;2023-03-24T11:38:57;1.33;;;1.20;;
1346;SDS011;667;48.796;9.480;2023-03-24T11:41:43;1.30;;;1.20;;
1346;SDS011;667;48.796;9.480;2023-03-24T11:44:20;1.57;;;1.47;;
1346;SDS011;667;48.796;9.480;2023-03-24T11:46:49;1.40;;;1.30;;
1346;SDS011;667;48.796;9.480;2023-03-24T11:49:20;1.13;;;0.93;;
1346;SDS011;667;48.796;9.480;2023-03-24T11:51:50;1.60;;;1.50;;
1346;SDS011;667;48.796;9.480;2023-03-24T11:54:19;1.47;;;1.37;;
1346;SDS011;667;48.796;9.480;2023-03-24T11:56:53;1.30;;;1.20;;
1346;SDS011;667;48.796;9.480;2023-03-24T12:00:11;1.43;;;1.33;;
1346;SDS011;667;48.796;9.480;2023-03-24T12:02:39;1.30;;;1.10;;
1346;SDS011;667;48.796;9.480;2023-03-24T12:05:19;1.60;;;1.17;;
1346;SDS011;667;48.796;9.480;2023-03-24T12:07:52;1.33;;;1.23;;
1346;SDS011;667;48.796;9.480;2023-03-24T12:13:18;1.37;;;1.20;;
1346;SDS011;667;48.796;9.480;2023-03-24T12:16:09;1.17;;;1.07;;
1346;SDS011;667;48.796;9.480;2023-03-24T12:22:14;1.10;;;1.00;;
1346;SDS011;667;48.796;9.480;2023-03-24T12:30:32;1.80;;;1.03;;
1346;SDS011;667;48.796;9.480;2023-03-24T12:35:59;1.10;;;1.00;;
1346;SDS011;667;48.796;9.480;2023-03-24T12:41:24;1.20;;;0.80;;
1346;SDS011;667;48.796;9.480;2023-03-24T12:49:41;1.00;;;0.87;;
1346;SDS011;667;48.796;9.480;2023-03-24T12:57:17;0.67;;;0.63;;
1346;SDS011;667;48.796;9.480;2023-03-24T12:59:52;0.70;;;0.70;;
1346;SDS011;667;48.796;9.480;2023-03-24T13:02:28;1.07;;;0.80;;
1346;SDS011;667;48.796;9.480;2023-03-24T13:05:23;1.00;;;0.80;;
1346;SDS011;667;48.796;9.480;2023-03-24T13:07:55;0.83;;;0.70;;
1346;SDS011;667;48.796;9.480;2023-03-24T13:10:27;1.10;;;1.00;;
1346;SDS011;667;48.796;9.480;2023-03-24T13:12:57;1.03;;;0.80;;
1346;SDS011;667;48.796;9.480;2023-03-24T13:29:06;2.37;;;0.73;;
1346;SDS011;667;48.796;9.480;2023-03-24T13:34:39;1.03;;;0.93;;
1346;SDS011;667;48.796;9.480;2023-03-24T13:39:56;0.83;;;0.80;;
1346;SDS011;667;48.796;9.480;2023-03-24T13:42:27;0.73;;;0.70;;
1346;SDS011;667;48.796;9.480;2023-03-24T13:45:02;0.80;;;0.70;;
1346;SDS011;667;48.796;9.480;2023-03-24T13:50:23;0.97;;;0.73;;
1346;SDS011;667;48.796;9.480;2023-03-24T13:52:49;0.83;;;0.77;;
1346;SDS011;667;48.796;9.480;2023-03-24T13:57:57;1.43;;;0.90;;
1346;SDS011;667;48.796;9.480;2023-03-24T14:00:28;1.60;;;0.70;;
1346;SDS011;667;48.796;9.480;2023-03-24T14:02:54;1.57;;;0.90;;
1346;SDS011;667;48.796;9.480;2023-03-24T14:08:34;1.00;;;0.83;;
1346;SDS011;667;48.796;9.480;2023-03-24T14:11:04;1.53;;;0.90;;
1346;SDS011;667;48.796;9.480;2023-03-24T14:13:35;1.20;;;1.10;;
1346;SDS011;667;48.796;9.480;2023-03-24T14:16:26;1.60;;;0.93;;
1346;SDS011;667;48.796;9.480;2023-03-24T14:22:44;3.10;;;1.03;;
1346;SDS011;667;48.796;9.480;2023-03-24T14:24:53;1.90;;;1.67;;
1346;SDS011;667;48.796;9.480;2023-03-24T14:30:03;3.63;;;2.23;;
1346;SDS011;667;48.796;9.480;2023-03-24T14:32:44;1.53;;;1.33;;
1346;SDS011;667;48.796;9.480;2023-03-24T14:40:39;2.93;;;1.70;;
1346;SDS011;667;48.796;9.480;2023-03-24T14:43:16;3.00;;;1.63;;
1346;SDS011;667;48.796;9.480;2023-03-24T14:50:57;1.73;;;1.57;;
1346;SDS011;667;48.796;9.480;2023-03-24T14:53:42;4.57;;;1.60;;
1346;SDS011;667;48.796;9.480;2023-03-24T14:56:11;5.03;;;2.35;;
1346;SDS011;667;48.796;9.480;2023-03-24T14:58:40;2.13;;;1.93;;
1346;SDS011;667;48.796;9.480;2023-03-24T15:01:08;2.67;;;1.97;;
1346;SDS011;667;48.796;9.480;2023-03-24T15:03:38;2.17;;;1.80;;
1346;SDS011;667;48.796;9.480;2023-03-24T15:06:29;4.28;;;2.72;;
1346;SDS011;667;48.796;9.480;2023-03-24T15:08:58;2.40;;;1.53;;
1346;SDS011;667;48.796;9.480;2023-03-24T15:11:34;2.00;;;1.60;;
1346;SDS011;667;48.796;9.480;2023-03-24T15:14:05;1.60;;;1.50;;
1346;SDS011;667;48.796;9.480;2023-03-24T15:16:38;1.73;;;1.33;;
1346;SDS011;667;48.796;9.480;2023-03-24T15:21:46;4.40;;;2.10;;
1346;SDS011;667;48.796;9.480;2023-03-24T15:26:45;2.85;;;2.00;;
1346;SDS011;667;48.796;9.480;2023-03-24T15:29:12;5.03;;;1.55;;
1346;SDS011;667;48.796;9.480;2023-03-24T15:31:37;2.73;;;1.80;;
1346;SDS011;667;48.796;9.480;2023-03-24T15:36:51;4.93;;;4.20;;
1346;SDS011;667;48.796;9.480;2023-03-24T15:39:25;3.67;;;2.30;;
1346;SDS011;667;48.796;9.480;2023-03-24T15:41:58;2.92;;;1.85;;
1346;SDS011;667;48.796;9.480;2023-03-24T15:44:25;3.43;;;2.77;;
1346;SDS011;667;48.796;9.480;2023-03-24T15:46:57;4.38;;;3.97;;
1346;SDS011;667;48.796;9.480;2023-03-24T15:49:25;2.78;;;2.42;;
1346;SDS011;667;48.796;9.480;2023-03-24T15:52:21;4.70;;;3.20;;
1346;SDS011;667;48.796;9.480;2023-03-24T15:55:00;5.10;;;4.60;;
1346;SDS011;667;48.796;9.480;2023-03-24T15:57:45;4.55;;;3.50;;
1346;SDS011;667;48.796;9.480;2023-03-24T16:00:21;4.33;;;3.50;;
1346;SDS011;667;48.796;9.480;2023-03-24T16:02:52;2.70;;;2.47;;
1346;SDS011;667;48.796;9.480;2023-03-24T16:07:52;2.93;;;2.30;;
1346;SDS011;667;48.796;9.480;2023-03-24T16:10:30;4.10;;;2.30;;
1346;SDS011;667;48.796;9.480;2023-03-24T16:15:39;2.95;;;1.73;;
1346;SDS011;667;48.796;9.480;2023-03-24T16:18:14;4.63;;;1.55;;
1346;SDS011;667;48.796;9.480;2023-03-24T16:21:01;1.90;;;0.90;;
1346;SDS011;667;48.796;9.480;2023-03-24T16:23:34;0.85;;;0.85;;
1346;SDS011;667;48.796;9.480;2023-03-24T16:26:00;0.80;;;0.77;;
1346;SDS011;667;48.796;9.480;2023-03-24T16:28:25;0.80;;;0.70;;
1346;SDS011;667;48.796;9.480;2023-03-24T16:30:54;1.50;;;1.27;;
1346;SDS011;667;48.796;9.480;2023-03-24T16:33:23;1.15;;;0.77;;
1346;SDS011;667;48.796;9.480;2023-03-24T16:35:49;2.83;;;1.63;;
1346;SDS011;667;48.796;9.480;2023-03-24T16:38:15;2.13;;;1.70;;
1346;SDS011;667;48.796;9.480;2023-03-24T16:40:48;1.85;;;1.60;;
1346;SDS011;667;48.796;9.480;2023-03-24T16:43:15;1.55;;;1.45;;
1346;SDS011;667;48.796;9.480;2023-03-24T16:45:43;1.20;;;1.10;;
1346;SDS011;667;48.796;9.480;2023-03-24T16:48:14;1.63;;;0.93;;
1346;SDS011;667;48.796;9.480;2023-03-24T16:50:41;1.77;;;1.10;;
1346;SDS011;667;48.796;9.480;2023-03-24T16:53:09;1.23;;;0.70;;
1346;SDS011;667;48.796;9.480;2023-03-24T16:55:35;1.03;;;0.80;;
1346;SDS011;667;48.796;9.480;2023-03-24T16:58:03;0.80;;;0.80;;
1346;SDS011;667;48.796;9.480;2023-03-24T17:00:29;1.10;;;0.90;;
1346;SDS011;667;48.796;9.480;2023-03-24T17:02:56;0.80;;;0.80;;
1346;SDS011;667;48.796;9.480;2023-03-24T17:07:54;1.10;;;1.03;;
1346;SDS011;667;48.796;9.480;2023-03-24T17:10:21;1.60;;;1.00;;
1346;SDS011;667;48.796;9.480;2023-03-24T17:12:47;1.05;;;0.85;;
1346;SDS011;667;48.796;9.480;2023-03-24T17:17:48;2.00;;;1.65;;
1346;SDS011;667;48.796;9.480;2023-03-24T17:20:13;1.20;;;1.10;;
1346;SDS011;667;48.796;9.480;2023-03-24T17:22:40;2.38;;;1.10;;
1346;SDS011;667;48.796;9.480;2023-03-24T17:25:12;1.20;;;1.08;;
1346;SDS011;667;48.796;9.480;2023-03-24T17:27:39;1.17;;;1.08;;
1346;SDS011;667;48.796;9.480;2023-03-24T17:30:05;1.40;;;1.30;;
1346;SDS011;667;48.796;9.480;2023-03-24T17:32:32;2.10;;;1.40;;
1346;SDS011;667;48.796;9.480;2023-03-24T17:34:58;2.00;;;1.60;;
1346;SDS011;667;48.796;9.480;2023-03-24T17:37:26;1.58;;;1.45;;
1346;SDS011;667;48.796;9.480;2023-03-24T17:39:52;1.40;;;1.30;;
1346;SDS011;667;48.796;9.480;2023-03-24T17:42:20;2.17;;;1.80;;
1346;SDS011;667;48.796;9.480;2023-03-24T17:44:46;4.60;;;4.30;;
1346;SDS011;667;48.796;9.480;2023-03-24T17:47:11;4.43;;;3.50;;
1346;SDS011;667;48.796;9.480;2023-03-24T17:49:37;2.27;;;2.07;;
1346;SDS011;667;48.796;9.480;2023-03-24T17:52:02;2.43;;;2.23;;
1346;SDS011;667;48.796;9.480;2023-03-24T17:54:28;3.80;;;2.33;;
1346;SDS011;667;48.796;9.480;2023-03-24T17:56:54;2.55;;;2.35;;
1346;SDS011;667;48.796;9.480;2023-03-24T17:59:20;3.23;;;3.03;;
1346;SDS011;667;48.796;9.480;2023-03-24T18:01:46;2.00;;;1.80;;
1346;SDS011;667;48.796;9.480;2023-03-24T18:04:11;2.23;;;2.03;;
1346;SDS011;667;48.796;9.480;2023-03-24T18:06:37;1.60;;;1.47;;
1346;SDS011;667;48.796;9.480;2023-03-24T18:09:05;1.80;;;1.70;;
1346;SDS011;667;48.796;9.480;2023-03-24T18:11:32;1.92;;;1.77;;
1346;SDS011;667;48.796;9.480;2023-03-24T18:13:58;3.47;;;2.30;;
1346;SDS011;667;48.796;9.480;2023-03-24T18:16:24;1.90;;;1.80;;
1346;SDS011;667;48.796;9.480;2023-03-24T18:18:53;2.45;;;1.70;;
1346;SDS011;667;48.796;9.480;2023-03-24T18:21:19;6.10;;;2.43;;
1346;SDS011;667;48.796;9.480;2023-03-24T18:23:45;2.70;;;2.10;;
1346;SDS011;667;48.796;9.480;2023-03-24T18:26:10;1.60;;;1.50;;
1346;SDS011;667;48.796;9.480;2023-03-24T18:28:36;1.90;;;1.57;;
1346;SDS011;667;48.796;9.480;2023-03-24T18:31:12;2.08;;;1.70;;
1346;SDS011;667;48.796;9.480;2023-03-24T18:33:40;2.30;;;2.10;;
1346;SDS011;667;48.796;9.480;2023-03-24T18:36:07;1.85;;;1.48;;
1346;SDS011;667;48.796;9.480;2023-03-24T18:38:34;1.85;;;1.75;;
1346;SDS011;667;48.796;9.480;2023-03-24T18:41:01;2.30;;;1.63;;
1346;SDS011;667;48.796;9.480;2023-03-24T18:43:28;2.30;;;1.80;;
1346;SDS011;667;48.796;9.480;2023-03-24T18:45:54;2.47;;;1.50;;
1346;SDS011;667;48.796;9.480;2023-03-24T18:48:20;2.05;;;1.85;;
1346;SDS011;667;48.796;9.480;2023-03-24T18:50:49;1.52;;;1.40;;
1346;SDS011;667;48.796;9.480;2023-03-24T18:53:16;1.80;;;1.70;;
1346;SDS011;667;48.796;9.480;2023-03-24T18:55:43;1.48;;;1.30;;